createdAt,value
2023-02-02T00:01:50.658Z,1.75
2023-02-02T00:04:40.517Z,1.71
2023-02-02T00:07:09.137Z,1.81
2023-02-02T00:09:36.347Z,1.79
2023-02-02T00:12:03.595Z,1.89
2023-02-02T00:14:30.861Z,1.88
2023-02-02T00:16:58.765Z,1.97
2023-02-02T00:19:32.536Z,1.99
2023-02-02T00:21:59.769Z,1.93
2023-02-02T00:24:26.993Z,1.97
2023-02-02T00:26:59.909Z,2.03
2023-02-02T00:29:30.916Z,1.91
2023-02-02T00:31:58.330Z,1.70
2023-02-02T00:34:25.907Z,1.61
2023-02-02T00:36:53.421Z,1.56
2023-02-02T00:39:26.358Z,1.56
2023-02-02T00:41:54.558Z,1.49
2023-02-02T00:44:40.539Z,1.40
2023-02-02T00:47:07.840Z,1.27
2023-02-02T00:49:35.032Z,1.29
2023-02-02T00:52:02.801Z,1.29
2023-02-02T00:54:30.209Z,1.29
2023-02-02T00:56:57.468Z,1.21
2023-02-02T00:59:24.762Z,1.08
2023-02-02T01:01:52.019Z,1.18
2023-02-02T01:04:19.308Z,1.35
2023-02-02T01:06:46.991Z,1.10
2023-02-02T01:09:14.474Z,1.12
2023-02-02T01:11:42.002Z,1.29
2023-02-02T01:14:09.235Z,1.18
2023-02-02T01:16:36.741Z,1.31
2023-02-02T01:19:04.125Z,1.34
2023-02-02T01:21:31.619Z,1.49
2023-02-02T01:23:58.844Z,1.43
2023-02-02T01:26:26.139Z,1.42
2023-02-02T01:28:53.347Z,1.35
2023-02-02T01:31:21.711Z,1.55
2023-02-02T01:33:50.205Z,1.61
2023-02-02T01:36:21.713Z,1.66
2023-02-02T01:38:50.368Z,1.59
2023-02-02T01:44:52.370Z,1.60
2023-02-02T01:47:25.981Z,1.58
2023-02-02T01:49:55.340Z,1.66
2023-02-02T01:52:28.222Z,1.61
2023-02-02T01:55:01.843Z,1.60
2023-02-02T01:57:51.224Z,1.52
2023-02-02T02:00:25.391Z,1.52
2023-02-02T02:03:00.265Z,1.51
2023-02-02T02:05:42.180Z,1.65
2023-02-02T02:08:22.902Z,1.75
2023-02-02T02:10:50.557Z,1.73
2023-02-02T02:13:18.991Z,1.69
2023-02-02T02:16:19.658Z,1.74
2023-02-02T02:19:15.332Z,1.79
2023-02-02T02:22:21.230Z,2.00
2023-02-02T02:25:32.733Z,1.65
2023-02-02T02:28:34.422Z,1.73
2023-02-02T02:31:35.707Z,1.73
2023-02-02T02:34:24.515Z,1.65
2023-02-02T02:37:12.749Z,1.87
2023-02-02T02:40:08.759Z,1.88
2023-02-02T02:42:43.888Z,1.73
2023-02-02T02:45:13.274Z,1.80
2023-02-02T02:47:42.577Z,1.76
2023-02-02T02:50:11.150Z,1.82
2023-02-02T02:52:40.399Z,1.90
2023-02-02T02:55:11.968Z,1.81
2023-02-02T02:58:04.885Z,1.78
2023-02-02T03:01:09.147Z,1.95
2023-02-02T03:04:12.677Z,2.00
2023-02-02T03:06:57.459Z,1.91
2023-02-02T03:09:36.117Z,1.95
2023-02-02T03:12:03.832Z,1.89
2023-02-02T03:14:36.900Z,1.88
2023-02-02T03:17:04.238Z,1.87
2023-02-02T03:19:31.735Z,1.81
2023-02-02T03:21:59.137Z,1.80
2023-02-02T03:24:26.473Z,1.85
2023-02-02T03:26:54.007Z,1.80
2023-02-02T03:29:21.565Z,1.97
2023-02-02T03:31:49.286Z,1.91
2023-02-02T03:34:16.544Z,1.91
2023-02-02T03:36:43.705Z,1.94
2023-02-02T03:39:11.035Z,1.91
2023-02-02T03:41:38.325Z,1.95
2023-02-02T03:44:05.808Z,1.81
2023-02-02T03:46:33.221Z,1.87
2023-02-02T03:49:02.779Z,1.84
2023-02-02T03:51:30.051Z,1.87
2023-02-02T03:53:57.205Z,1.98
2023-02-02T03:56:24.730Z,2.01
2023-02-02T03:58:54.490Z,1.96
2023-02-02T04:01:29.080Z,1.84
2023-02-02T04:03:57.825Z,1.87
2023-02-02T04:06:26.471Z,1.87
2023-02-02T04:08:53.871Z,1.83
2023-02-02T04:11:21.054Z,1.82
2023-02-02T04:13:48.302Z,1.91
2023-02-02T04:16:15.580Z,1.85
2023-02-02T04:18:42.904Z,1.83
2023-02-02T04:21:10.121Z,1.86
2023-02-02T04:23:37.566Z,1.84
2023-02-02T04:26:08.174Z,1.88
2023-02-02T04:28:36.018Z,1.82
2023-02-02T04:31:03.334Z,1.89
2023-02-02T04:33:30.572Z,1.86
2023-02-02T04:35:57.860Z,1.90
2023-02-02T04:38:25.260Z,1.92
2023-02-02T04:40:52.512Z,2.00
2023-02-02T04:43:19.706Z,2.04
2023-02-02T04:45:46.966Z,1.96
2023-02-02T04:48:14.192Z,1.95
2023-02-02T04:50:41.456Z,1.90
2023-02-02T04:53:08.706Z,1.99
2023-02-02T04:55:39.126Z,1.99
2023-02-02T04:58:06.651Z,2.01
2023-02-02T05:00:34.086Z,1.96
2023-02-02T05:03:01.607Z,1.77
2023-02-02T05:05:28.923Z,1.91
2023-02-02T05:07:56.146Z,1.88
2023-02-02T05:10:23.423Z,1.87
2023-02-02T05:12:53.568Z,1.99
2023-02-02T05:15:22.166Z,1.95
2023-02-02T05:17:50.064Z,1.87
2023-02-02T05:20:17.732Z,1.90
2023-02-02T05:22:44.921Z,1.84
2023-02-02T05:25:12.342Z,1.92
2023-02-02T05:27:39.545Z,1.86
2023-02-02T05:30:07.689Z,1.85
2023-02-02T05:32:34.952Z,1.92
2023-02-02T05:35:02.334Z,1.89
2023-02-02T05:37:31.919Z,1.80
2023-02-02T05:39:59.207Z,1.89
2023-02-02T05:42:26.314Z,1.92
2023-02-02T05:44:53.515Z,1.87
2023-02-02T05:47:21.743Z,1.88
2023-02-02T05:49:50.037Z,1.90
2023-02-02T05:52:21.454Z,2.02
2023-02-02T05:54:48.747Z,1.94
2023-02-02T05:57:15.985Z,1.93
2023-02-02T05:59:43.311Z,1.96
2023-02-02T06:02:10.549Z,1.97
2023-02-02T06:04:38.001Z,1.99
2023-02-02T06:07:05.477Z,1.99
2023-02-02T06:09:32.684Z,1.93
2023-02-02T06:11:59.925Z,1.99
2023-02-02T06:14:27.310Z,2.09
2023-02-02T06:16:54.584Z,2.09
2023-02-02T06:19:21.739Z,1.93
2023-02-02T06:21:49.124Z,2.06
2023-02-02T06:24:16.396Z,2.13
2023-02-02T06:26:43.670Z,2.12
2023-02-02T06:29:14.493Z,2.02
2023-02-02T06:31:42.232Z,1.96
2023-02-02T06:34:14.968Z,2.05
2023-02-02T06:36:42.630Z,2.15
2023-02-02T06:39:09.904Z,2.15
2023-02-02T06:41:37.334Z,2.21
2023-02-02T06:44:04.605Z,2.27
2023-02-02T06:46:34.191Z,2.12
2023-02-02T06:49:01.481Z,2.13
2023-02-02T06:51:28.721Z,2.18
2023-02-02T06:53:58.356Z,2.28
2023-02-02T06:56:26.733Z,2.36
2023-02-02T06:58:56.488Z,2.25
2023-02-02T07:01:23.680Z,2.28
2023-02-02T07:03:51.697Z,2.28
2023-02-02T07:06:27.957Z,2.22
2023-02-02T07:09:02.507Z,2.35
2023-02-02T07:11:39.785Z,2.32
2023-02-02T07:14:08.541Z,2.43
2023-02-02T07:16:36.112Z,2.40
2023-02-02T07:19:03.608Z,2.46
2023-02-02T07:21:35.827Z,2.43
2023-02-02T07:24:05.488Z,2.52
2023-02-02T07:26:36.050Z,2.47
2023-02-02T07:29:04.769Z,2.46
2023-02-02T07:31:34.752Z,2.44
2023-02-02T07:34:02.976Z,2.57
2023-02-02T07:36:30.155Z,2.53
2023-02-02T07:38:57.827Z,2.56
2023-02-02T07:41:25.603Z,2.59
2023-02-02T07:43:52.961Z,2.54
2023-02-02T07:46:20.829Z,2.58
2023-02-02T07:48:48.824Z,2.58
2023-02-02T07:51:18.468Z,2.46
2023-02-02T07:53:52.516Z,2.53
2023-02-02T07:56:23.730Z,2.59
2023-02-02T07:58:54.955Z,2.55
2023-02-02T08:01:23.289Z,2.46
2023-02-02T08:03:51.136Z,2.47
2023-02-02T08:06:21.781Z,2.48
2023-02-02T08:08:50.029Z,2.45
2023-02-02T08:11:21.520Z,2.44
2023-02-02T08:13:55.570Z,2.52
2023-02-02T08:16:26.687Z,2.61
2023-02-02T08:18:54.440Z,2.51
2023-02-02T08:21:22.267Z,2.57
2023-02-02T08:23:51.923Z,2.40
2023-02-02T08:26:28.811Z,2.49
2023-02-02T08:28:59.592Z,2.63
2023-02-02T08:31:44.509Z,2.74
2023-02-02T08:34:16.805Z,2.73
2023-02-02T08:36:44.082Z,2.79
2023-02-02T08:39:13.375Z,2.84
2023-02-02T08:41:40.842Z,2.81
2023-02-02T08:44:11.615Z,2.82
2023-02-02T08:46:39.558Z,2.62
2023-02-02T08:49:06.837Z,2.81
2023-02-02T08:51:34.059Z,2.66
2023-02-02T08:54:02.184Z,2.90
2023-02-02T08:56:29.467Z,2.66
2023-02-02T08:58:58.752Z,2.68
2023-02-02T09:01:32.189Z,2.76
2023-02-02T09:04:05.045Z,2.76
2023-02-02T09:06:40.593Z,2.66
2023-02-02T09:09:14.086Z,2.81
2023-02-02T09:11:42.365Z,2.63
2023-02-02T09:14:12.642Z,2.71
2023-02-02T09:16:40.651Z,2.82
2023-02-02T09:19:08.089Z,2.77
2023-02-02T09:21:38.413Z,2.61
2023-02-02T09:24:14.358Z,2.61
2023-02-02T09:26:44.109Z,2.72
2023-02-02T09:29:18.140Z,2.68
2023-02-02T09:31:45.929Z,2.64
2023-02-02T09:34:15.093Z,2.74
2023-02-02T09:36:43.873Z,2.76
2023-02-02T09:39:13.010Z,2.79
2023-02-02T09:41:40.628Z,2.64
2023-02-02T09:44:28.993Z,2.83
2023-02-02T09:47:17.712Z,2.98
2023-02-02T09:50:02.522Z,2.88
2023-02-02T09:52:44.121Z,2.99
2023-02-02T09:55:35.158Z,3.24
2023-02-02T09:58:35.962Z,3.22
2023-02-02T10:01:07.618Z,2.94
2023-02-02T10:03:41.614Z,3.01
2023-02-02T10:06:26.858Z,2.90
2023-02-02T10:09:03.275Z,2.85
2023-02-02T10:11:40.851Z,3.02
2023-02-02T10:14:42.267Z,3.03
2023-02-02T10:17:21.816Z,2.92
2023-02-02T10:19:55.364Z,3.02
2023-02-02T10:22:28.833Z,3.08
2023-02-02T10:24:58.591Z,3.13
2023-02-02T10:27:40.293Z,3.10
2023-02-02T10:30:22.133Z,3.14
2023-02-02T10:33:03.576Z,3.12
2023-02-02T10:35:42.237Z,2.98
2023-02-02T10:38:32.532Z,3.10
2023-02-02T10:41:21.770Z,3.14
2023-02-02T10:44:37.500Z,3.48
2023-02-02T10:47:10.685Z,3.51
2023-02-02T10:49:40.833Z,3.67
2023-02-02T10:52:13.652Z,3.45
2023-02-02T10:55:36.842Z,3.37
2023-02-02T10:58:20.605Z,3.38
2023-02-02T11:00:58.101Z,3.17
2023-02-02T11:03:34.360Z,3.33
2023-02-02T11:06:22.891Z,3.35
2023-02-02T11:08:59.684Z,3.22
2023-02-02T11:11:46.955Z,3.34
2023-02-02T11:14:32.588Z,3.28
2023-02-02T11:17:18.162Z,3.57
2023-02-02T11:19:45.400Z,3.59
2023-02-02T11:22:35.509Z,3.48
2023-02-02T11:25:27.598Z,3.23
2023-02-02T11:27:54.956Z,3.42
2023-02-02T11:30:36.250Z,3.35
2023-02-02T11:33:34.726Z,3.35
2023-02-02T11:36:21.495Z,3.32
2023-02-02T11:38:48.796Z,3.56
2023-02-02T11:41:17.187Z,3.73
2023-02-02T11:43:54.294Z,3.64
2023-02-02T11:46:31.133Z,3.45
2023-02-02T11:49:14.220Z,3.65
2023-02-02T11:51:42.248Z,3.89
2023-02-02T11:54:31.408Z,3.66
2023-02-02T11:57:02.985Z,3.52
2023-02-02T11:59:35.043Z,3.62
2023-02-02T12:02:20.692Z,3.58
2023-02-02T12:04:53.545Z,3.68
2023-02-02T12:07:32.869Z,3.72
2023-02-02T12:10:18.781Z,3.60
2023-02-02T12:13:31.073Z,3.53
2023-02-02T12:16:26.257Z,3.48
2023-02-02T12:19:26.819Z,3.47
2023-02-02T12:22:48.193Z,3.51
2023-02-02T12:25:27.734Z,3.63
2023-02-02T12:28:27.429Z,3.69
2023-02-02T12:31:33.423Z,3.73
2023-02-02T12:34:31.362Z,3.58
2023-02-02T12:37:31.204Z,3.60
2023-02-02T12:40:27.863Z,3.78
2023-02-02T12:43:51.077Z,3.80
2023-02-02T12:46:44.730Z,3.94
2023-02-02T12:49:26.738Z,3.92
2023-02-02T12:52:29.317Z,3.68
2023-02-02T12:55:34.873Z,3.77
2023-02-02T12:58:34.083Z,3.84
2023-02-02T13:01:22.394Z,4.13
2023-02-02T13:04:25.402Z,4.17
2023-02-02T13:07:24.265Z,4.21
2023-02-02T13:10:35.677Z,4.21
2023-02-02T13:13:44.002Z,4.32
2023-02-02T13:16:14.312Z,4.53
2023-02-02T13:19:05.130Z,4.63
2023-02-02T13:21:34.906Z,4.52
2023-02-02T13:24:06.021Z,4.55
2023-02-02T13:26:41.884Z,4.47
2023-02-02T13:29:11.708Z,4.52
2023-02-02T13:31:47.474Z,4.51
2023-02-02T13:34:41.837Z,4.25
2023-02-02T13:37:42.241Z,4.21
2023-02-02T13:40:32.766Z,4.26
2023-02-02T13:43:03.035Z,4.12
2023-02-02T13:45:50.543Z,4.27
2023-02-02T13:48:45.757Z,4.37
2023-02-02T13:51:59.427Z,4.15
2023-02-02T13:55:00.340Z,4.36
2023-02-02T13:57:48.855Z,4.43
2023-02-02T14:00:34.915Z,4.27
2023-02-02T14:03:07.417Z,3.90
2023-02-02T14:05:41.599Z,3.83
2023-02-02T14:08:24.379Z,3.43
2023-02-02T14:10:54.516Z,3.74
2023-02-02T14:14:16.051Z,3.38
2023-02-02T14:16:50.183Z,3.40
2023-02-02T14:19:35.333Z,3.63
2023-02-02T14:22:14.530Z,3.60
2023-02-02T14:24:48.717Z,3.70
2023-02-02T14:27:15.821Z,3.89
2023-02-02T14:29:46.939Z,3.68
2023-02-02T14:32:29.361Z,3.67
2023-02-02T14:35:29.702Z,3.77
2023-02-02T14:38:26.132Z,3.62
2023-02-02T14:41:05.808Z,3.57
2023-02-02T14:43:46.379Z,3.70
2023-02-02T14:46:13.596Z,3.76
2023-02-02T14:49:06.967Z,3.89
2023-02-02T14:51:49.670Z,3.91
2023-02-02T14:54:41.067Z,3.52
2023-02-02T14:57:22.777Z,2.85
2023-02-02T14:59:51.801Z,2.46
2023-02-02T15:02:36.727Z,2.27
2023-02-02T15:05:28.527Z,2.39
2023-02-02T15:08:21.046Z,2.31
2023-02-02T15:10:50.281Z,2.42
2023-02-02T15:13:19.134Z,2.40
2023-02-02T15:15:59.346Z,2.33
2023-02-02T15:18:39.312Z,2.34
2023-02-02T15:21:08.364Z,2.29
2023-02-02T15:23:42.674Z,2.17
2023-02-02T15:26:27.638Z,2.39
2023-02-02T15:29:13.991Z,2.54
2023-02-02T15:31:54.648Z,2.50
2023-02-02T15:34:50.164Z,2.54
2023-02-02T15:37:25.814Z,2.53
2023-02-02T15:40:05.263Z,2.45
2023-02-02T15:42:53.160Z,2.51
2023-02-02T15:45:44.953Z,2.44
2023-02-02T15:48:31.281Z,2.46
2023-02-02T15:51:03.619Z,2.53
2023-02-02T15:53:51.804Z,2.52
2023-02-02T15:56:25.270Z,2.49
2023-02-02T15:58:56.874Z,2.45
2023-02-02T16:01:26.306Z,2.31
2023-02-02T16:04:21.023Z,2.43
2023-02-02T16:06:49.492Z,2.47
2023-02-02T16:09:28.785Z,2.66
2023-02-02T16:11:56.554Z,2.62
2023-02-02T16:14:24.159Z,2.43
2023-02-02T16:16:51.581Z,2.58
2023-02-02T16:19:25.143Z,2.67
2023-02-02T16:22:04.397Z,2.65
2023-02-02T16:24:42.627Z,2.38
2023-02-02T16:27:18.197Z,2.57
2023-02-02T16:29:46.265Z,2.42
2023-02-02T16:32:34.932Z,2.45
2023-02-02T16:35:27.488Z,2.37
2023-02-02T16:38:33.099Z,2.49
2023-02-02T16:41:08.210Z,2.41
2023-02-02T16:43:38.189Z,2.45
2023-02-02T16:46:17.566Z,2.43
2023-02-02T16:48:56.121Z,2.48
2023-02-02T16:51:29.038Z,2.29
2023-02-02T16:54:07.211Z,2.51
2023-02-02T16:56:41.954Z,2.55
2023-02-02T16:59:26.968Z,2.54
2023-02-02T17:02:04.337Z,2.56
2023-02-02T17:04:34.196Z,2.72
2023-02-02T17:07:13.509Z,2.66
2023-02-02T17:09:47.851Z,2.68
2023-02-02T17:12:34.952Z,2.65
2023-02-02T17:15:17.952Z,2.55
2023-02-02T17:17:50.127Z,2.41
2023-02-02T17:20:19.120Z,2.38
2023-02-02T17:23:01.355Z,2.41
2023-02-02T17:25:37.587Z,2.45
2023-02-02T17:28:14.671Z,2.14
2023-02-02T17:30:45.070Z,2.38
2023-02-02T17:33:18.444Z,2.30
2023-02-02T17:35:54.753Z,2.27
2023-02-02T17:38:24.942Z,2.38
2023-02-02T17:40:52.886Z,2.33
2023-02-02T17:43:20.199Z,2.33
2023-02-02T17:45:47.784Z,2.23
2023-02-02T17:48:16.034Z,2.22
2023-02-02T17:50:45.047Z,2.07
2023-02-02T17:53:18.670Z,2.21
2023-02-02T17:55:49.942Z,2.24
2023-02-02T17:58:18.156Z,2.39
2023-02-02T18:00:56.330Z,1.92
2023-02-02T18:03:37.417Z,1.89
2023-02-02T18:06:04.968Z,2.05
2023-02-02T18:08:36.023Z,2.15
2023-02-02T18:11:04.066Z,2.31
2023-02-02T18:13:31.608Z,2.27
2023-02-02T18:15:59.772Z,2.22
2023-02-02T18:18:27.533Z,2.01
2023-02-02T18:20:54.814Z,2.10
2023-02-02T18:23:24.536Z,2.09
2023-02-02T18:25:55.412Z,2.08
2023-02-02T18:28:22.974Z,1.97
2023-02-02T18:30:52.699Z,1.91
2023-02-02T18:33:20.369Z,1.89
2023-02-02T18:35:48.964Z,1.89
2023-02-02T18:38:16.467Z,1.64
2023-02-02T18:40:43.703Z,1.37
2023-02-02T18:43:11.201Z,0.83
2023-02-02T18:45:38.493Z,0.78
2023-02-02T18:48:05.834Z,0.75
2023-02-02T18:50:33.171Z,0.62
2023-02-02T18:53:00.445Z,0.74
2023-02-02T18:55:28.125Z,0.83
2023-02-02T18:57:56.127Z,0.71
2023-02-02T19:00:23.456Z,0.57
2023-02-02T19:02:51.121Z,0.55
2023-02-02T19:05:36.990Z,0.55
2023-02-02T19:08:05.971Z,0.64
2023-02-02T19:10:33.287Z,0.71
2023-02-02T19:13:19.646Z,0.69
2023-02-02T19:15:49.891Z,0.56
2023-02-02T19:18:21.462Z,0.56
2023-02-02T19:20:51.197Z,0.76
2023-02-02T19:23:29.571Z,0.65
2023-02-02T19:25:57.321Z,0.69
2023-02-02T19:28:31.317Z,0.59
2023-02-02T19:31:03.594Z,0.51
2023-02-02T19:33:41.986Z,0.60
2023-02-02T19:36:23.171Z,0.65
2023-02-02T19:38:59.009Z,0.67
2023-02-02T19:41:27.025Z,0.57
2023-02-02T19:44:02.616Z,0.54
2023-02-02T19:46:31.530Z,0.67
2023-02-02T19:49:16.859Z,0.68
2023-02-02T19:51:48.723Z,0.64
2023-02-02T19:54:29.723Z,0.77
2023-02-02T19:57:01.020Z,0.82
2023-02-02T19:59:35.330Z,0.72
2023-02-02T20:02:52.533Z,0.60
2023-02-02T20:05:29.503Z,0.67
2023-02-02T20:08:21.174Z,0.52
2023-02-02T20:10:49.143Z,0.76
2023-02-02T20:13:24.238Z,0.70
2023-02-02T20:16:03.570Z,0.77
2023-02-02T20:18:44.750Z,0.88
2023-02-02T20:21:32.869Z,0.87
2023-02-02T20:24:00.690Z,0.74
2023-02-02T20:26:38.679Z,0.64
2023-02-02T20:29:38.542Z,0.33
2023-02-02T20:32:21.889Z,0.57
2023-02-02T20:34:51.363Z,0.40
2023-02-02T20:37:36.558Z,0.22
2023-02-02T20:40:29.879Z,0.13
2023-02-02T20:42:58.454Z,0.11
2023-02-02T20:45:26.562Z,0.18
2023-02-02T20:47:53.970Z,-0.10
2023-02-02T20:50:25.503Z,0.02
2023-02-02T20:52:54.181Z,-0.01
2023-02-02T20:55:21.771Z,-0.06
2023-02-02T20:57:49.052Z,0.04
2023-02-02T21:00:19.330Z,0.11
2023-02-02T21:02:48.602Z,0.29
2023-02-02T21:05:16.116Z,0.17
2023-02-02T21:07:43.417Z,0.13
2023-02-02T21:10:10.998Z,0.18
2023-02-02T21:12:38.224Z,0.25
2023-02-02T21:15:06.013Z,0.32
2023-02-02T21:17:33.228Z,0.22
2023-02-02T21:20:02.691Z,0.10
2023-02-02T21:22:29.920Z,0.39
2023-02-02T21:24:57.246Z,0.42
2023-02-02T21:27:27.225Z,0.42
2023-02-02T21:29:54.515Z,0.30
2023-02-02T21:32:22.286Z,0.47
2023-02-02T21:34:50.506Z,0.42
2023-02-02T21:37:17.929Z,0.32
2023-02-02T21:39:51.113Z,0.46
2023-02-02T21:42:22.189Z,0.47
2023-02-02T21:45:07.612Z,0.28
2023-02-02T21:47:37.584Z,0.22
2023-02-02T21:50:18.299Z,0.10
2023-02-02T21:52:46.848Z,-0.07
2023-02-02T21:55:38.298Z,0.05
2023-02-02T21:58:22.214Z,0.22
2023-02-02T22:00:50.528Z,0.01
2023-02-02T22:03:37.998Z,-0.16
2023-02-02T22:06:07.857Z,0.01
2023-02-02T22:08:37.201Z,-0.04
2023-02-02T22:11:11.604Z,-0.24
2023-02-02T22:13:38.952Z,-0.14
2023-02-02T22:16:17.524Z,-0.39
2023-02-02T22:18:44.915Z,-0.35
2023-02-02T22:21:16.043Z,-0.32
2023-02-02T22:23:44.371Z,-0.10
2023-02-02T22:26:33.568Z,-0.19
2023-02-02T22:29:07.289Z,-0.34
2023-02-02T22:31:34.678Z,-0.33
2023-02-02T22:34:02.124Z,-0.30
2023-02-02T22:36:29.350Z,-0.33
2023-02-02T22:38:56.511Z,-0.17
2023-02-02T22:41:23.820Z,-0.09
2023-02-02T22:43:51.183Z,-0.15
2023-02-02T22:46:18.387Z,-0.29
2023-02-02T22:48:45.673Z,-0.10
2023-02-02T22:51:12.953Z,-0.22
2023-02-02T22:53:40.189Z,-0.07
2023-02-02T22:56:07.641Z,-0.21
2023-02-02T22:58:34.880Z,-0.42
2023-02-02T23:01:02.091Z,-0.41
2023-02-02T23:03:29.325Z,-0.13
2023-02-02T23:05:56.653Z,-0.37
2023-02-02T23:08:24.415Z,-0.20
2023-02-02T23:10:51.691Z,-0.18
2023-02-02T23:13:18.839Z,-0.27
2023-02-02T23:15:46.142Z,-0.34
2023-02-02T23:18:13.385Z,-0.18
2023-02-02T23:20:40.812Z,-0.38
2023-02-02T23:23:08.046Z,-0.39
2023-02-02T23:25:35.270Z,-0.51
2023-02-02T23:28:02.591Z,-0.47
2023-02-02T23:30:29.928Z,-0.39
2023-02-02T23:32:57.171Z,-0.25
2023-02-02T23:35:24.402Z,-0.35
2023-02-02T23:37:51.653Z,-0.34
2023-02-02T23:40:19.205Z,-0.25
2023-02-02T23:42:46.485Z,-0.19
2023-02-02T23:45:16.123Z,-0.44
2023-02-02T23:47:43.904Z,-0.33
2023-02-02T23:50:12.359Z,-0.36
2023-02-02T23:52:39.982Z,-0.28
2023-02-02T23:55:09.246Z,-0.55
2023-02-02T23:57:37.653Z,-0.44
